Main page
METAR-TAF:

METAR-TAF

Airports :

Jinnah International Airport

Karachi, Pakistan

latitude: 24-54N, longitude: 067-08E, elevation: 21 m

Current weather observation

The report was made 32 minutes ago, at 07:30 UTC
Wind 13 kt from the Southwest
Temperature 34°C
Humidity 50%
Pressure 1006 hPa
Visibility: 5000 m
Few clouds at a height of 2000 ft
haze

METAR: OPKC 250730Z 23013KT 5000 HZ FEW020 34/22 Q1006 NOSIG

Time: 13:02 (08:02 UTC)

Forecast

The report was made 4 hours and 32 minutes ago, at 03:30 UTC
Forecast valid from 25 at 06 UTC to 26 at 12 UTC
Wind 10 kt from the West with gusts up to 20 kt
Visibility: 5000 m
Blowing dust
Temporary
from 26 at 00 UTC to 26 at 04 UTC
Wind 5 kt from the West
Visibility: 5000 m
haze
From 26 at 0600 UTC
Wind 15 kt from the West with gusts up to 25 kt
Visibility: 4000 m
Blowing dust

TAF: OPKC 250330Z 2506/2612 26010G20KT 5000 BLDU NSC TEMPO 2600/2604 26005KT 5000 HZ NSC FM260600 26015G25KT 4000 BLDU NSC

Weather observations and forecasts of more than 4000 airports (METAR and TAF reports).

The available stations are represented by yellow and red dots on the map.

Hover mouse over dot to see the name of the station.

Then click to see weather observations and forecasts.

To change the map : click on the green buttons with a black cross to zoom in, on the green button with a dash to zoom out, or on the green arrows for adjacent maps.


METAR-TAF: